메인 페이지
METAR-TAF:

METAR-TAF

공항 :

Teterboro, 뉴저지, 미국

위도: 40-51-32N, 경도: 074-03-24W, 고도: 2m

현재 날씨관측

예보는 25분 전, 03:51시(UTC)에 발표되었습니다.
북서17kt, 순간 최대 풍속 27kt
온도 -3°C
습도 46%
기압 1012 hPa
시정: 16.1km
맑음

METAR: KTEB 050351Z 32017G27KT 10SM CLR M03/M13 A2989 RMK AO2 PK WND 31029/0328 SLP120 T10281133

시각: 23:16 (04:16 UTC)

예보

예보는 1 시간 43분 전, 02:33시(UTC)에 발표되었습니다.
예보 대상 시간: 05일 03시부터 06일 06시까지 (UTC)
북서15kt, 순간 최대 풍속 22kt
시정: 10km
맑음
05일 1600시부터 (UTC)
서북서17kt, 순간 최대 풍속 26kt
시정: 10km
맑음
06일 0000시부터 (UTC)
서북서13kt, 순간 최대 풍속 23kt
시정: 10km
맑음

TAF: KTEB 050233Z 0503/0606 32015G22KT P6SM SKC FM051600 30017G26KT P6SM SKC FM060000 29013G23KT P6SM SKC

4,000개 이상의 공항 관측 자료 및 예보 (METAR 및 TAF 보고).

지도상에서 검색 가능한 기상관측소가 노란 점과 빨간 점으로 표시되어 있습니다.

기상관측소 명을 보려면 표시 위로 마우스를 이동하세요.

날씨 관측과 예보를 보려면 클릭하세요.

지도 변경 : 확대하려면 엑스 표시가 있는 녹색 버튼, 축소하려면 빼기 표시가 있는 녹색 버튼, 다음 페이지의 지도를 보려면 녹색 화살표를 클릭하세요.


METAR-TAF: